sensor_id;sensor_type;location;lat;lon;timestamp;pressure;altitude;pressure_sealevel;temperature;humidity
6778;BME280;3426;52.244;10.534;2023-01-25T00:01:26;102939.13;;;3.89;70.46
6778;BME280;3426;52.244;10.534;2023-01-25T00:03:53;102928.59;;;3.83;70.72
6778;BME280;3426;52.244;10.534;2023-01-25T00:06:19;102915.59;;;3.93;70.93
6778;BME280;3426;52.244;10.534;2023-01-25T00:08:50;102918.91;;;3.77;71.32
6778;BME280;3426;52.244;10.534;2023-01-25T00:11:16;102910.44;;;4.04;70.79
6778;BME280;3426;52.244;10.534;2023-01-25T00:13:43;102907.00;;;4.13;69.59
6778;BME280;3426;52.244;10.534;2023-01-25T00:16:09;102908.44;;;3.76;71.08
6778;BME280;3426;52.244;10.534;2023-01-25T00:18:36;102899.03;;;3.97;71.89
6778;BME280;3426;52.244;10.534;2023-01-25T00:21:16;102907.78;;;4.01;71.35
6778;BME280;3426;52.244;10.534;2023-01-25T00:23:43;102901.25;;;3.59;72.17
6778;BME280;3426;52.244;10.534;2023-01-25T00:26:10;102900.69;;;3.88;72.08
6778;BME280;3426;52.244;10.534;2023-01-25T00:28:37;102914.16;;;3.41;73.56
6778;BME280;3426;52.244;10.534;2023-01-25T00:31:05;102893.84;;;3.23;74.37
6778;BME280;3426;52.244;10.534;2023-01-25T00:35:59;102887.19;;;4.51;70.32
6778;BME280;3426;52.244;10.534;2023-01-25T00:40:54;102881.69;;;4.15;72.06
6778;BME280;3426;52.244;10.534;2023-01-25T00:43:22;102881.59;;;4.06;70.90
6778;BME280;3426;52.244;10.534;2023-01-25T00:45:49;102882.56;;;4.18;71.34
6778;BME280;3426;52.244;10.534;2023-01-25T00:48:15;102880.19;;;4.53;70.44
6778;BME280;3426;52.244;10.534;2023-01-25T00:50:42;102884.41;;;4.25;70.66
6778;BME280;3426;52.244;10.534;2023-01-25T00:53:08;102882.69;;;4.34;70.94
6778;BME280;3426;52.244;10.534;2023-01-25T00:55:34;102872.72;;;3.88;71.82
6778;BME280;3426;52.244;10.534;2023-01-25T00:58:01;102866.84;;;4.17;72.05
6778;BME280;3426;52.244;10.534;2023-01-25T01:00:27;102863.16;;;3.96;72.12
6778;BME280;3426;52.244;10.534;2023-01-25T01:02:54;102860.38;;;3.77;72.98
6778;BME280;3426;52.244;10.534;2023-01-25T01:05:20;102860.31;;;3.69;73.85
6778;BME280;3426;52.244;10.534;2023-01-25T01:07:48;102864.91;;;3.94;72.84
6778;BME280;3426;52.244;10.534;2023-01-25T01:10:15;102855.09;;;3.72;74.10
6778;BME280;3426;52.244;10.534;2023-01-25T01:12:41;102853.28;;;3.65;74.30
6778;BME280;3426;52.244;10.534;2023-01-25T01:15:08;102872.22;;;3.38;74.61
6778;BME280;3426;52.244;10.534;2023-01-25T01:17:35;102868.75;;;3.40;74.25
6778;BME280;3426;52.244;10.534;2023-01-25T01:20:01;102856.56;;;3.44;75.09
6778;BME280;3426;52.244;10.534;2023-01-25T01:22:28;102853.91;;;3.41;74.82
6778;BME280;3426;52.244;10.534;2023-01-25T01:24:54;102859.50;;;3.76;75.08
6778;BME280;3426;52.244;10.534;2023-01-25T01:27:21;102849.22;;;4.01;73.43
6778;BME280;3426;52.244;10.534;2023-01-25T01:29:47;102847.59;;;4.15;72.27
6778;BME280;3426;52.244;10.534;2023-01-25T01:32:13;102838.97;;;4.31;71.35
6778;BME280;3426;52.244;10.534;2023-01-25T01:34:40;102840.44;;;3.92;72.92
6778;BME280;3426;52.244;10.534;2023-01-25T01:37:07;102836.78;;;3.78;73.27
6778;BME280;3426;52.244;10.534;2023-01-25T01:39:33;102830.53;;;3.62;75.08
6778;BME280;3426;52.244;10.534;2023-01-25T01:41:59;102834.31;;;3.92;73.32
6778;BME280;3426;52.244;10.534;2023-01-25T01:44:48;102830.16;;;4.20;72.40
6778;BME280;3426;52.244;10.534;2023-01-25T01:49:52;102820.09;;;3.64;74.51
6778;BME280;3426;52.244;10.534;2023-01-25T01:52:25;102822.88;;;3.85;75.02
6778;BME280;3426;52.244;10.534;2023-01-25T01:54:58;102816.00;;;4.03;73.96
6778;BME280;3426;52.244;10.534;2023-01-25T01:57:34;102805.19;;;3.60;74.89
6778;BME280;3426;52.244;10.534;2023-01-25T02:00:09;102815.88;;;3.84;74.48
6778;BME280;3426;52.244;10.534;2023-01-25T02:02:37;102809.56;;;3.58;75.84
6778;BME280;3426;52.244;10.534;2023-01-25T02:05:05;102801.81;;;3.73;75.26
6778;BME280;3426;52.244;10.534;2023-01-25T02:07:35;102795.88;;;3.94;74.33
6778;BME280;3426;52.244;10.534;2023-01-25T02:10:08;102799.91;;;3.57;74.98
6778;BME280;3426;52.244;10.534;2023-01-25T02:12:36;102788.88;;;3.96;73.87
6778;BME280;3426;52.244;10.534;2023-01-25T02:15:04;102801.19;;;4.08;73.85
6778;BME280;3426;52.244;10.534;2023-01-25T02:17:33;102798.81;;;4.44;72.02
6778;BME280;3426;52.244;10.534;2023-01-25T02:23:02;102796.59;;;3.76;74.11
6778;BME280;3426;52.244;10.534;2023-01-25T02:25:31;102791.19;;;3.55;75.46
6778;BME280;3426;52.244;10.534;2023-01-25T02:28:04;102797.47;;;3.75;75.39
6778;BME280;3426;52.244;10.534;2023-01-25T02:30:32;102789.00;;;4.13;73.55
6778;BME280;3426;52.244;10.534;2023-01-25T02:32:59;102797.63;;;3.93;74.16
6778;BME280;3426;52.244;10.534;2023-01-25T02:35:47;102796.91;;;4.19;72.48
6778;BME280;3426;52.244;10.534;2023-01-25T02:38:16;102796.03;;;4.18;73.76
6778;BME280;3426;52.244;10.534;2023-01-25T02:40:51;102789.94;;;4.24;72.86
6778;BME280;3426;52.244;10.534;2023-01-25T02:43:20;102788.44;;;4.69;71.73
6778;BME280;3426;52.244;10.534;2023-01-25T02:45:51;102778.69;;;4.46;71.98
6778;BME280;3426;52.244;10.534;2023-01-25T02:48:21;102792.63;;;4.35;72.35
6778;BME280;3426;52.244;10.534;2023-01-25T02:50:48;102794.19;;;4.04;73.20
6778;BME280;3426;52.244;10.534;2023-01-25T02:53:14;102785.47;;;4.08;73.59
6778;BME280;3426;52.244;10.534;2023-01-25T02:55:41;102783.06;;;4.44;71.85
6778;BME280;3426;52.244;10.534;2023-01-25T02:58:07;102777.88;;;4.58;71.68
6778;BME280;3426;52.244;10.534;2023-01-25T03:00:33;102786.66;;;4.62;71.13
6778;BME280;3426;52.244;10.534;2023-01-25T03:03:00;102783.72;;;4.04;72.89
6778;BME280;3426;52.244;10.534;2023-01-25T03:05:26;102789.09;;;4.27;72.83
6778;BME280;3426;52.244;10.534;2023-01-25T03:07:53;102778.63;;;4.27;72.96
6778;BME280;3426;52.244;10.534;2023-01-25T03:10:19;102782.16;;;4.32;72.44
6778;BME280;3426;52.244;10.534;2023-01-25T03:12:46;102779.31;;;3.98;73.61
6778;BME280;3426;52.244;10.534;2023-01-25T03:15:12;102774.13;;;4.12;72.57
6778;BME280;3426;52.244;10.534;2023-01-25T03:17:39;102771.50;;;4.10;73.72
6778;BME280;3426;52.244;10.534;2023-01-25T03:20:06;102778.50;;;4.11;73.56
6778;BME280;3426;52.244;10.534;2023-01-25T03:22:32;102777.66;;;4.18;72.85
6778;BME280;3426;52.244;10.534;2023-01-25T03:24:58;102765.44;;;4.16;73.03
6778;BME280;3426;52.244;10.534;2023-01-25T03:27:25;102762.63;;;3.88;74.31
6778;BME280;3426;52.244;10.534;2023-01-25T03:29:54;102761.88;;;4.08;73.70
6778;BME280;3426;52.244;10.534;2023-01-25T03:32:20;102760.66;;;3.60;74.85
6778;BME280;3426;52.244;10.534;2023-01-25T03:34:47;102751.47;;;4.24;73.57
6778;BME280;3426;52.244;10.534;2023-01-25T03:37:13;102756.47;;;3.80;74.75
6778;BME280;3426;52.244;10.534;2023-01-25T03:39:40;102759.53;;;3.32;76.48
6778;BME280;3426;52.244;10.534;2023-01-25T03:42:06;102755.47;;;3.67;75.74
6778;BME280;3426;52.244;10.534;2023-01-25T03:44:33;102751.78;;;3.45;75.62
6778;BME280;3426;52.244;10.534;2023-01-25T03:46:59;102758.75;;;3.43;75.65
6778;BME280;3426;52.244;10.534;2023-01-25T03:49:26;102762.59;;;2.92;78.47
6778;BME280;3426;52.244;10.534;2023-01-25T03:51:53;102764.53;;;3.09;77.67
6778;BME280;3426;52.244;10.534;2023-01-25T03:54:19;102756.75;;;3.15;77.50
6778;BME280;3426;52.244;10.534;2023-01-25T03:56:46;102751.56;;;3.19;77.53
6778;BME280;3426;52.244;10.534;2023-01-25T03:59:12;102747.16;;;3.15;77.93
6778;BME280;3426;52.244;10.534;2023-01-25T04:01:39;102739.78;;;3.70;76.06
6778;BME280;3426;52.244;10.534;2023-01-25T04:04:05;102734.53;;;3.72;75.02
6778;BME280;3426;52.244;10.534;2023-01-25T04:06:31;102727.56;;;3.72;75.83
6778;BME280;3426;52.244;10.534;2023-01-25T04:08:58;102726.72;;;3.75;74.87
6778;BME280;3426;52.244;10.534;2023-01-25T04:11:25;102722.50;;;4.00;75.29
6778;BME280;3426;52.244;10.534;2023-01-25T04:13:51;102716.50;;;4.24;74.04
6778;BME280;3426;52.244;10.534;2023-01-25T04:16:17;102722.53;;;4.08;73.73
6778;BME280;3426;52.244;10.534;2023-01-25T04:18:44;102719.91;;;4.08;73.70
6778;BME280;3426;52.244;10.534;2023-01-25T04:21:10;102719.81;;;3.89;74.20
6778;BME280;3426;52.244;10.534;2023-01-25T04:23:37;102720.78;;;4.04;74.17
6778;BME280;3426;52.244;10.534;2023-01-25T04:26:05;102718.16;;;4.07;74.19
6778;BME280;3426;52.244;10.534;2023-01-25T04:28:33;102715.59;;;4.17;72.97
6778;BME280;3426;52.244;10.534;2023-01-25T04:31:01;102710.19;;;3.88;73.47
6778;BME280;3426;52.244;10.534;2023-01-25T04:33:28;102711.03;;;3.84;73.88
6778;BME280;3426;52.244;10.534;2023-01-25T04:35:55;102708.38;;;3.77;74.77
6778;BME280;3426;52.244;10.534;2023-01-25T04:38:21;102712.66;;;3.64;74.04
6778;BME280;3426;52.244;10.534;2023-01-25T04:40:49;102701.66;;;3.06;77.00
6778;BME280;3426;52.244;10.534;2023-01-25T04:43:17;102704.16;;;2.92;77.75
6778;BME280;3426;52.244;10.534;2023-01-25T04:45:44;102700.78;;;3.02;77.39
6778;BME280;3426;52.244;10.534;2023-01-25T04:48:12;102692.53;;;3.60;75.99
6778;BME280;3426;52.244;10.534;2023-01-25T04:50:40;102695.22;;;3.69;76.07
6778;BME280;3426;52.244;10.534;2023-01-25T04:53:08;102691.78;;;3.79;75.50
6778;BME280;3426;52.244;10.534;2023-01-25T04:55:35;102689.31;;;4.08;73.37
6778;BME280;3426;52.244;10.534;2023-01-25T04:58:02;102677.13;;;4.09;74.32
6778;BME280;3426;52.244;10.534;2023-01-25T05:00:29;102679.72;;;4.07;74.10
6778;BME280;3426;52.244;10.534;2023-01-25T05:02:56;102681.47;;;4.04;73.88
6778;BME280;3426;52.244;10.534;2023-01-25T05:05:23;102677.97;;;4.08;74.03
6778;BME280;3426;52.244;10.534;2023-01-25T05:07:49;102680.50;;;3.88;74.36
6778;BME280;3426;52.244;10.534;2023-01-25T05:10:16;102677.06;;;3.98;73.89
6778;BME280;3426;52.244;10.534;2023-01-25T05:12:42;102682.72;;;3.34;75.70
6778;BME280;3426;52.244;10.534;2023-01-25T05:15:09;102683.00;;;3.71;74.56
6778;BME280;3426;52.244;10.534;2023-01-25T05:17:36;102679.44;;;3.63;74.88
6778;BME280;3426;52.244;10.534;2023-01-25T05:20:03;102679.38;;;3.54;75.44
6778;BME280;3426;52.244;10.534;2023-01-25T05:22:30;102670.88;;;3.88;74.42
6778;BME280;3426;52.244;10.534;2023-01-25T05:24:56;102673.44;;;3.78;74.41
6778;BME280;3426;52.244;10.534;2023-01-25T05:27:24;102673.63;;;2.91;77.07
6778;BME280;3426;52.244;10.534;2023-01-25T05:29:50;102661.66;;;3.19;76.73
6778;BME280;3426;52.244;10.534;2023-01-25T05:32:19;102661.34;;;2.87;77.60
6778;BME280;3426;52.244;10.534;2023-01-25T05:34:46;102653.03;;;3.29;76.40
6778;BME280;3426;52.244;10.534;2023-01-25T05:37:16;102656.84;;;3.79;76.20
6778;BME280;3426;52.244;10.534;2023-01-25T05:39:43;102657.00;;;4.03;74.98
6778;BME280;3426;52.244;10.534;2023-01-25T05:42:15;102662.97;;;3.84;74.76
6778;BME280;3426;52.244;10.534;2023-01-25T05:44:42;102666.44;;;3.77;74.78
6778;BME280;3426;52.244;10.534;2023-01-25T05:47:14;102655.97;;;3.78;74.14
6778;BME280;3426;52.244;10.534;2023-01-25T05:49:40;102655.81;;;3.54;75.11
6778;BME280;3426;52.244;10.534;2023-01-25T05:52:14;102662.03;;;3.74;75.80
6778;BME280;3426;52.244;10.534;2023-01-25T05:54:41;102658.06;;;3.09;76.20
6778;BME280;3426;52.244;10.534;2023-01-25T05:57:08;102653.94;;;3.37;77.17
6778;BME280;3426;52.244;10.534;2023-01-25T05:59:34;102652.25;;;3.41;76.94
6778;BME280;3426;52.244;10.534;2023-01-25T06:02:01;102655.50;;;3.15;77.05
6778;BME280;3426;52.244;10.534;2023-01-25T06:04:27;102646.16;;;3.47;76.05
6778;BME280;3426;52.244;10.534;2023-01-25T06:06:54;102647.84;;;3.35;77.68
6778;BME280;3426;52.244;10.534;2023-01-25T06:09:20;102639.25;;;3.58;76.25
6778;BME280;3426;52.244;10.534;2023-01-25T06:11:48;102637.59;;;3.72;76.42
6778;BME280;3426;52.244;10.534;2023-01-25T06:14:14;102638.09;;;3.22;77.88
6778;BME280;3426;52.244;10.534;2023-01-25T06:16:41;102636.53;;;3.41;76.69
6778;BME280;3426;52.244;10.534;2023-01-25T06:19:07;102630.59;;;3.69;75.75
6778;BME280;3426;52.244;10.534;2023-01-25T06:21:34;102636.25;;;3.07;77.25
6778;BME280;3426;52.244;10.534;2023-01-25T06:24:03;102637.47;;;3.54;75.13
6778;BME280;3426;52.244;10.534;2023-01-25T06:26:29;102632.31;;;3.66;75.54
6778;BME280;3426;52.244;10.534;2023-01-25T06:28:56;102628.97;;;3.91;74.91
6778;BME280;3426;52.244;10.534;2023-01-25T06:31:22;102628.03;;;3.83;74.67
6778;BME280;3426;52.244;10.534;2023-01-25T06:33:50;102635.06;;;3.86;75.92
6778;BME280;3426;52.244;10.534;2023-01-25T06:36:18;102634.34;;;4.20;73.82
6778;BME280;3426;52.244;10.534;2023-01-25T06:38:49;102625.63;;;4.26;73.19
6778;BME280;3426;52.244;10.534;2023-01-25T06:41:16;102636.81;;;3.96;74.38
6778;BME280;3426;52.244;10.534;2023-01-25T06:43:43;102635.13;;;4.07;74.55
6778;BME280;3426;52.244;10.534;2023-01-25T06:46:10;102638.72;;;4.31;73.58
6778;BME280;3426;52.244;10.534;2023-01-25T06:48:38;102641.28;;;4.12;73.81
6778;BME280;3426;52.244;10.534;2023-01-25T06:51:07;102645.47;;;3.80;74.17
6778;BME280;3426;52.244;10.534;2023-01-25T06:53:37;102639.56;;;4.14;73.91
6778;BME280;3426;52.244;10.534;2023-01-25T06:56:11;102643.75;;;3.80;74.23
6778;BME280;3426;52.244;10.534;2023-01-25T06:58:38;102641.75;;;3.44;74.59
6778;BME280;3426;52.244;10.534;2023-01-25T07:01:07;102634.97;;;3.72;76.16
6778;BME280;3426;52.244;10.534;2023-01-25T07:03:35;102628.91;;;3.82;75.25
6778;BME280;3426;52.244;10.534;2023-01-25T07:06:04;102627.28;;;4.06;74.27
6778;BME280;3426;52.244;10.534;2023-01-25T07:08:32;102617.63;;;4.00;73.22
6778;BME280;3426;52.244;10.534;2023-01-25T07:11:02;102621.03;;;3.82;74.60
6778;BME280;3426;52.244;10.534;2023-01-25T07:13:30;102615.72;;;3.64;75.67
6778;BME280;3426;52.244;10.534;2023-01-25T07:16:01;102615.75;;;3.71;75.39
6778;BME280;3426;52.244;10.534;2023-01-25T07:18:29;102623.63;;;3.76;75.44
6778;BME280;3426;52.244;10.534;2023-01-25T07:23:36;102629.69;;;3.67;74.09
6778;BME280;3426;52.244;10.534;2023-01-25T07:26:05;102622.84;;;3.94;73.59
6778;BME280;3426;52.244;10.534;2023-01-25T07:28:32;102625.53;;;4.03;73.72
6778;BME280;3426;52.244;10.534;2023-01-25T07:31:05;102615.88;;;3.97;73.85
6778;BME280;3426;52.244;10.534;2023-01-25T07:33:34;102615.88;;;4.02;73.71
6778;BME280;3426;52.244;10.534;2023-01-25T07:36:02;102611.38;;;3.72;75.24
6778;BME280;3426;52.244;10.534;2023-01-25T07:38:29;102619.03;;;3.37;76.06
6778;BME280;3426;52.244;10.534;2023-01-25T07:40:56;102608.69;;;3.63;76.16
6778;BME280;3426;52.244;10.534;2023-01-25T07:43:23;102608.53;;;3.37;76.23
6778;BME280;3426;52.244;10.534;2023-01-25T07:45:50;102613.03;;;3.53;76.14
6778;BME280;3426;52.244;10.534;2023-01-25T07:48:18;102616.63;;;3.72;74.67
6778;BME280;3426;52.244;10.534;2023-01-25T07:50:45;102605.09;;;3.44;76.72
6778;BME280;3426;52.244;10.534;2023-01-25T07:53:12;102602.75;;;3.91;75.21
6778;BME280;3426;52.244;10.534;2023-01-25T07:55:39;102599.25;;;3.92;75.73
6778;BME280;3426;52.244;10.534;2023-01-25T07:58:05;102598.41;;;4.01;73.75
6778;BME280;3426;52.244;10.534;2023-01-25T08:00:32;102597.44;;;3.76;74.62
6778;BME280;3426;52.244;10.534;2023-01-25T08:02:58;102606.84;;;3.40;75.88
6778;BME280;3426;52.244;10.534;2023-01-25T08:05:24;102599.25;;;3.94;74.43
6778;BME280;3426;52.244;10.534;2023-01-25T08:07:51;102593.22;;;4.16;73.29
6778;BME280;3426;52.244;10.534;2023-01-25T08:10:17;102597.56;;;4.07;72.88
6778;BME280;3426;52.244;10.534;2023-01-25T08:12:45;102601.81;;;3.82;74.02
6778;BME280;3426;52.244;10.534;2023-01-25T08:15:12;102606.44;;;2.90;76.65
6778;BME280;3426;52.244;10.534;2023-01-25T08:17:39;102596.38;;;3.43;76.45
6778;BME280;3426;52.244;10.534;2023-01-25T08:20:06;102592.19;;;3.79;74.84
6778;BME280;3426;52.244;10.534;2023-01-25T08:22:33;102604.44;;;3.82;74.22
6778;BME280;3426;52.244;10.534;2023-01-25T08:24:59;102598.41;;;4.01;73.26
6778;BME280;3426;52.244;10.534;2023-01-25T08:27:29;102597.06;;;3.18;77.96
6778;BME280;3426;52.244;10.534;2023-01-25T08:29:56;102597.78;;;2.97;77.01
6778;BME280;3426;52.244;10.534;2023-01-25T08:32:22;102605.06;;;3.38;76.31
6778;BME280;3426;52.244;10.534;2023-01-25T08:34:48;102596.59;;;3.85;73.93
6778;BME280;3426;52.244;10.534;2023-01-25T08:37:15;102596.75;;;2.80;77.07
6778;BME280;3426;52.244;10.534;2023-01-25T08:39:42;102603.00;;;3.00;78.59
6778;BME280;3426;52.244;10.534;2023-01-25T08:42:08;102598.03;;;3.31;74.91
6778;BME280;3426;52.244;10.534;2023-01-25T08:44:35;102590.19;;;3.32;76.32
6778;BME280;3426;52.244;10.534;2023-01-25T08:47:01;102590.19;;;3.32;75.68
6778;BME280;3426;52.244;10.534;2023-01-25T08:49:27;102590.41;;;3.70;74.69
6778;BME280;3426;52.244;10.534;2023-01-25T08:51:56;102584.97;;;2.36;78.42
6778;BME280;3426;52.244;10.534;2023-01-25T08:54:23;102580.84;;;2.55;78.90
6778;BME280;3426;52.244;10.534;2023-01-25T08:56:50;102579.63;;;3.22;77.89
6778;BME280;3426;52.244;10.534;2023-01-25T08:59:17;102574.31;;;3.08;76.91
6778;BME280;3426;52.244;10.534;2023-01-25T09:01:43;102578.06;;;2.38;79.37
6778;BME280;3426;52.244;10.534;2023-01-25T09:04:10;102578.53;;;2.90;79.49
6778;BME280;3426;52.244;10.534;2023-01-25T09:06:36;102568.72;;;1.86;81.70
6778;BME280;3426;52.244;10.534;2023-01-25T09:09:03;102563.50;;;2.70;81.51
6778;BME280;3426;52.244;10.534;2023-01-25T09:11:33;102553.94;;;2.72;78.57
6778;BME280;3426;52.244;10.534;2023-01-25T09:13:59;102557.41;;;2.69;77.71
6778;BME280;3426;52.244;10.534;2023-01-25T09:16:26;102549.75;;;2.90;79.82
6778;BME280;3426;52.244;10.534;2023-01-25T09:18:55;102555.25;;;3.30;76.63
6778;BME280;3426;52.244;10.534;2023-01-25T09:21:22;102557.88;;;3.32;76.30
6778;BME280;3426;52.244;10.534;2023-01-25T09:23:52;102554.28;;;3.14;76.31
6778;BME280;3426;52.244;10.534;2023-01-25T09:26:37;102556.97;;;3.25;75.96
6778;BME280;3426;52.244;10.534;2023-01-25T09:29:04;102550.94;;;3.38;75.03
6778;BME280;3426;52.244;10.534;2023-01-25T09:31:32;102558.88;;;3.57;74.91
6778;BME280;3426;52.244;10.534;2023-01-25T09:33:59;102554.38;;;3.34;76.70
6778;BME280;3426;52.244;10.534;2023-01-25T09:36:26;102548.16;;;2.15;79.06
6778;BME280;3426;52.244;10.534;2023-01-25T09:38:54;102552.56;;;2.19;79.89
6778;BME280;3426;52.244;10.534;2023-01-25T09:46:53;102540.41;;;3.31;76.21
6778;BME280;3426;52.244;10.534;2023-01-25T09:49:57;102541.47;;;3.63;75.37
6778;BME280;3426;52.244;10.534;2023-01-25T09:53:25;102536.22;;;3.65;74.65
6778;BME280;3426;52.244;10.534;2023-01-25T09:55:43;102527.22;;;3.14;77.68
6778;BME280;3426;52.244;10.534;2023-01-25T09:58:32;102523.78;;;3.18;76.95
6778;BME280;3426;52.244;10.534;2023-01-25T10:01:16;102516.78;;;3.22;76.82
6778;BME280;3426;52.244;10.534;2023-01-25T10:03:54;102515.28;;;3.74;74.52
6778;BME280;3426;52.244;10.534;2023-01-25T10:06:30;102511.63;;;3.31;76.25
6778;BME280;3426;52.244;10.534;2023-01-25T10:09:16;102511.41;;;2.99;76.66
6778;BME280;3426;52.244;10.534;2023-01-25T10:11:45;102499.56;;;3.63;76.02
6778;BME280;3426;52.244;10.534;2023-01-25T10:14:17;102501.69;;;2.81;77.47
6778;BME280;3426;52.244;10.534;2023-01-25T10:21:53;102490.66;;;3.34;75.96
6778;BME280;3426;52.244;10.534;2023-01-25T10:24:33;102473.31;;;3.56;74.06
6778;BME280;3426;52.244;10.534;2023-01-25T10:27:19;102479.34;;;3.38;75.35
6778;BME280;3426;52.244;10.534;2023-01-25T10:29:51;102470.75;;;3.71;75.00
6778;BME280;3426;52.244;10.534;2023-01-25T10:32:25;102466.38;;;3.65;74.24
6778;BME280;3426;52.244;10.534;2023-01-25T10:34:55;102468.06;;;3.57;73.48
6778;BME280;3426;52.244;10.534;2023-01-25T10:37:27;102464.31;;;3.02;77.39
6778;BME280;3426;52.244;10.534;2023-01-25T10:42:25;102451.44;;;3.41;74.72
6778;BME280;3426;52.244;10.534;2023-01-25T10:44:52;102445.41;;;3.64;74.10
6778;BME280;3426;52.244;10.534;2023-01-25T10:47:35;102439.34;;;3.86;74.26
6778;BME280;3426;52.244;10.534;2023-01-25T10:50:02;102436.72;;;3.80;72.98
6778;BME280;3426;52.244;10.534;2023-01-25T10:52:30;102432.16;;;3.27;75.62
6778;BME280;3426;52.244;10.534;2023-01-25T10:55:18;102427.63;;;2.94;76.39
6778;BME280;3426;52.244;10.534;2023-01-25T10:57:49;102421.81;;;3.67;76.16
6778;BME280;3426;52.244;10.534;2023-01-25T11:00:36;102424.50;;;3.91;73.31
6778;BME280;3426;52.244;10.534;2023-01-25T11:03:05;102417.50;;;3.87;73.78
6778;BME280;3426;52.244;10.534;2023-01-25T11:05:52;102412.22;;;3.78;74.33
6778;BME280;3426;52.244;10.534;2023-01-25T11:08:23;102406.94;;;3.48;75.75
6778;BME280;3426;52.244;10.534;2023-01-25T11:10:51;102398.28;;;3.94;74.58
6778;BME280;3426;52.244;10.534;2023-01-25T11:13:31;102399.16;;;3.83;74.83
6778;BME280;3426;52.244;10.534;2023-01-25T11:21:16;102375.56;;;3.99;74.46
6778;BME280;3426;52.244;10.534;2023-01-25T11:26:27;102375.53;;;3.66;74.10
6778;BME280;3426;52.244;10.534;2023-01-25T11:29:10;102382.44;;;3.36;75.16
6778;BME280;3426;52.244;10.534;2023-01-25T11:31:38;102384.38;;;2.16;78.76
6778;BME280;3426;52.244;10.534;2023-01-25T11:34:17;102385.50;;;2.50;80.75
6778;BME280;3426;52.244;10.534;2023-01-25T11:40:13;102357.63;;;2.52;80.17
6778;BME280;3426;52.244;10.534;2023-01-25T11:45:52;102346.34;;;2.66;80.91
6778;BME280;3426;52.244;10.534;2023-01-25T11:55:18;102328.53;;;2.04;82.02
6778;BME280;3426;52.244;10.534;2023-01-25T12:06:33;102315.34;;;1.91;81.02
6778;BME280;3426;52.244;10.534;2023-01-25T12:10:03;102307.31;;;3.17;77.39
6778;BME280;3426;52.244;10.534;2023-01-25T12:26:20;102275.97;;;3.93;74.50
6778;BME280;3426;52.244;10.534;2023-01-25T12:28:51;102262.88;;;3.66;74.09
6778;BME280;3426;52.244;10.534;2023-01-25T12:31:27;102252.41;;;3.81;74.84
6778;BME280;3426;52.244;10.534;2023-01-25T12:39:13;102224.28;;;2.62;79.41
6778;BME280;3426;52.244;10.534;2023-01-25T12:47:21;102215.59;;;2.70;79.52
6778;BME280;3426;52.244;10.534;2023-01-25T12:50:01;102223.56;;;3.32;77.35
6778;BME280;3426;52.244;10.534;2023-01-25T12:52:46;102212.97;;;2.71;79.04
6778;BME280;3426;52.244;10.534;2023-01-25T12:55:15;102201.69;;;3.06;78.73
6778;BME280;3426;52.244;10.534;2023-01-25T12:58:03;102194.63;;;2.65;79.29
6778;BME280;3426;52.244;10.534;2023-01-25T13:11:24;102185.88;;;2.52;79.03
6778;BME280;3426;52.244;10.534;2023-01-25T13:19:37;102172.94;;;3.55;77.68
6778;BME280;3426;52.244;10.534;2023-01-25T13:22:04;102172.03;;;2.98;77.95
6778;BME280;3426;52.244;10.534;2023-01-25T13:25:04;102170.28;;;3.62;77.18
6778;BME280;3426;52.244;10.534;2023-01-25T13:27:26;102173.75;;;2.77;78.41
6778;BME280;3426;52.244;10.534;2023-01-25T13:29:55;102171.09;;;2.56;78.91
6778;BME280;3426;52.244;10.534;2023-01-25T13:37:30;102144.13;;;3.12;76.81
6778;BME280;3426;52.244;10.534;2023-01-25T13:42:37;102143.22;;;2.70;79.39
6778;BME280;3426;52.244;10.534;2023-01-25T13:45:19;102136.28;;;3.33;76.67
6778;BME280;3426;52.244;10.534;2023-01-25T13:48:10;102127.56;;;3.19;77.84
6778;BME280;3426;52.244;10.534;2023-01-25T13:50:44;102124.88;;;2.50;77.49
6778;BME280;3426;52.244;10.534;2023-01-25T13:55:44;102122.25;;;3.62;75.18
6778;BME280;3426;52.244;10.534;2023-01-25T13:58:22;102114.47;;;2.90;77.45
6778;BME280;3426;52.244;10.534;2023-01-25T14:00:53;102108.34;;;3.46;76.33
6778;BME280;3426;52.244;10.534;2023-01-25T14:06:15;102115.34;;;3.18;77.03
6778;BME280;3426;52.244;10.534;2023-01-25T14:08:43;102118.78;;;2.71;78.23
6778;BME280;3426;52.244;10.534;2023-01-25T14:11:18;102124.91;;;2.70;79.44
6778;BME280;3426;52.244;10.534;2023-01-25T14:14:00;102109.16;;;3.62;75.75
6778;BME280;3426;52.244;10.534;2023-01-25T14:16:28;102104.88;;;2.97;76.98
6778;BME280;3426;52.244;10.534;2023-01-25T14:19:15;102104.00;;;2.96;77.81
6778;BME280;3426;52.244;10.534;2023-01-25T14:21:43;102107.47;;;2.77;78.25
6778;BME280;3426;52.244;10.534;2023-01-25T14:24:10;102109.22;;;2.76;78.40
6778;BME280;3426;52.244;10.534;2023-01-25T14:26:38;102112.69;;;2.77;78.81
6778;BME280;3426;52.244;10.534;2023-01-25T14:29:18;102108.34;;;3.17;76.96
6778;BME280;3426;52.244;10.534;2023-01-25T14:32:02;102093.50;;;3.33;76.33
6778;BME280;3426;52.244;10.534;2023-01-25T14:34:29;102083.91;;;3.36;76.04
6778;BME280;3426;52.244;10.534;2023-01-25T14:37:25;102076.97;;;3.08;77.52
6778;BME280;3426;52.244;10.534;2023-01-25T14:39:51;102076.91;;;3.46;74.71
6778;BME280;3426;52.244;10.534;2023-01-25T14:42:18;102074.31;;;3.23;76.13
6778;BME280;3426;52.244;10.534;2023-01-25T14:44:45;102073.41;;;3.58;74.40
6778;BME280;3426;52.244;10.534;2023-01-25T14:47:27;102067.34;;;2.88;76.93
6778;BME280;3426;52.244;10.534;2023-01-25T14:49:54;102072.53;;;3.39;75.47
6778;BME280;3426;52.244;10.534;2023-01-25T14:52:25;102066.44;;;3.34;75.68
6778;BME280;3426;52.244;10.534;2023-01-25T14:54:55;102063.00;;;2.87;77.00
6778;BME280;3426;52.244;10.534;2023-01-25T14:57:30;102058.63;;;2.83;78.86
6778;BME280;3426;52.244;10.534;2023-01-25T14:59:58;102054.25;;;3.10;76.22
6778;BME280;3426;52.244;10.534;2023-01-25T15:02:46;102065.59;;;2.71;78.26
6778;BME280;3426;52.244;10.534;2023-01-25T15:05:20;102063.88;;;2.91;79.87
6778;BME280;3426;52.244;10.534;2023-01-25T15:07:54;102056.88;;;3.19;77.41
6778;BME280;3426;52.244;10.534;2023-01-25T15:10:24;102053.41;;;2.96;78.67
6778;BME280;3426;52.244;10.534;2023-01-25T15:15:50;102049.03;;;3.13;79.32
6778;BME280;3426;52.244;10.534;2023-01-25T15:21:09;102034.22;;;2.93;76.47